Time;durP1;ratioP1;P1;durP2;ratioP2;P2;SDS_P1;SDS_P2;PMS_P1;PMS_P2;Temp;Humidity;BMP_temperature;BMP_pressure;BME280_temperature;BME280_humidity;BME280_pressure;Samples;Min_cycle;Max_cycle;Signal;HPM_P1;HPM_P2
2023/02/25 00:01:23;;;;;;;2.93;1.17;;;6.50;94.50;;;;;;5049979;28;21000;-74
2023/02/25 00:03:52;;;;;;;4.13;1.67;;;6.50;95.30;;;;;;5050467;28;20183;-74
2023/02/25 00:06:18;;;;;;;3.37;1.23;;;;;;;;;;5046958;28;20184;-74
2023/02/25 00:08:44;;;;;;;2.83;1.20;;;6.40;95.60;;;;;;5048033;28;20256;-74
2023/02/25 00:11:12;;;;;;;1.77;1.67;;;6.50;95.50;;;;;;5050400;28;20182;-74
2023/02/25 00:13:39;;;;;;;1.03;0.93;;;6.50;94.80;;;;;;5051437;28;20218;-74
2023/02/25 00:16:06;;;;;;;1.27;1.17;;;6.40;95.40;;;;;;5045097;28;20722;-74
2023/02/25 00:18:32;;;;;;;2.53;1.30;;;6.40;95.90;;;;;;5055592;28;20206;-75
2023/02/25 00:20:58;;;;;;;2.10;1.37;;;6.30;95.90;;;;;;5057837;28;20179;-74
2023/02/25 00:23:24;;;;;;;1.67;1.57;;;6.40;96.40;;;;;;5049826;28;20673;-74
2023/02/25 00:26:01;;;;;;;1.13;1.03;;;6.40;96.20;;;;;;5048038;28;20186;-73
2023/02/25 00:28:27;;;;;;;2.47;1.37;;;6.30;95.50;;;;;;5055016;28;20637;-74
2023/02/25 00:30:53;;;;;;;3.50;1.30;;;;;;;;;;5053694;28;20244;-73
2023/02/25 00:33:19;;;;;;;1.93;1.23;;;6.30;96.30;;;;;;5051614;28;20199;-74
2023/02/25 00:35:45;;;;;;;4.20;2.13;;;;;;;;;;5049714;28;20951;-74
2023/02/25 00:38:11;;;;;;;2.07;1.60;;;;;;;;;;5045172;28;20244;-74
2023/02/25 00:40:38;;;;;;;2.77;1.90;;;6.20;95.70;;;;;;5047564;28;20179;-74
2023/02/25 00:43:05;;;;;;;1.53;1.43;;;6.20;96.30;;;;;;5049992;28;20271;-74
2023/02/25 00:45:31;;;;;;;2.27;1.27;;;6.20;96.50;;;;;;5051708;28;20544;-73
2023/02/25 00:47:57;;;;;;;2.27;1.23;;;;;;;;;;5051904;28;20205;-74
2023/02/25 00:50:23;;;;;;;4.00;1.20;;;6.20;96.30;;;;;;5049461;28;20176;-74
2023/02/25 00:52:49;;;;;;;1.13;1.13;;;;;;;;;;5048232;28;20683;-74
2023/02/25 00:55:15;;;;;;;2.07;0.93;;;6.20;95.40;;;;;;5048217;28;20191;-73
2023/02/25 00:57:42;;;;;;;1.23;1.20;;;;;;;;;;5048316;28;20195;-73
2023/02/25 01:00:14;;;;;;;2.00;0.93;;;6.20;96.10;;;;;;5048823;28;20643;-74
2023/02/25 01:02:41;;;;;;;2.07;1.00;;;6.30;96.60;;;;;;5051339;28;20176;-73
2023/02/25 01:05:08;;;;;;;0.80;0.73;;;6.30;96.30;;;;;;5045523;28;20184;-74
2023/02/25 01:07:34;;;;;;;1.77;1.33;;;6.30;96.40;;;;;;5047923;28;20229;-74
2023/02/25 01:09:59;;;;;;;1.50;1.07;;;6.30;95.20;;;;;;5048214;28;20188;-74
2023/02/25 01:12:25;;;;;;;1.13;0.77;;;6.30;95.30;;;;;;5046754;28;20647;-74
2023/02/25 01:14:54;;;;;;;0.53;0.53;;;6.30;95.60;;;;;;5046553;28;20219;-74
2023/02/25 01:17:21;;;;;;;1.10;0.97;;;;;;;;;;5044943;28;20269;-74
2023/02/25 01:19:47;;;;;;;2.40;0.73;;;;;;;;;;5052681;28;20703;-74
2023/02/25 01:22:13;;;;;;;1.77;1.03;;;6.30;95.90;;;;;;5041575;28;20720;-74
2023/02/25 01:24:39;;;;;;;1.23;1.20;;;6.30;95.50;;;;;;5046810;28;20186;-74
2023/02/25 01:27:05;;;;;;;1.83;1.27;;;6.30;95.70;;;;;;5048621;28;20179;-73
2023/02/25 01:29:35;;;;;;;1.33;1.10;;;6.30;96.20;;;;;;5046653;28;20196;-74
2023/02/25 01:32:02;;;;;;;1.90;1.20;;;6.30;96.30;;;;;;5053741;28;20179;-74
2023/02/25 01:34:29;;;;;;;1.27;1.00;;;6.30;95.50;;;;;;5051063;28;20215;-74
2023/02/25 01:36:55;;;;;;;2.03;1.20;;;6.30;95.60;;;;;;5051218;28;20194;-74
2023/02/25 01:39:22;;;;;;;2.07;1.00;;;6.30;95.60;;;;;;5053117;28;20410;-74
2023/02/25 01:41:49;;;;;;;1.73;1.00;;;6.30;96.20;;;;;;5049595;28;20186;-73
2023/02/25 01:44:17;;;;;;;1.20;1.10;;;6.30;96.20;;;;;;5049255;28;20188;-73
2023/02/25 01:46:44;;;;;;;0.90;0.73;;;6.30;95.70;;;;;;5053677;28;20179;-74
2023/02/25 01:49:33;;;;;;;2.00;1.13;;;6.30;96.20;;;;;;5047745;28;20188;-73
2023/02/25 01:52:22;;;;;;;1.30;0.87;;;6.30;96.10;;;;;;5048472;28;20194;-74
2023/02/25 01:54:52;;;;;;;2.83;0.77;;;6.40;95.20;;;;;;5047961;28;20218;-74
2023/02/25 01:57:18;;;;;;;2.60;0.97;;;6.30;95.50;;;;;;5046919;28;20737;-74
2023/02/25 01:59:46;;;;;;;1.47;1.13;;;6.40;95.20;;;;;;5049097;28;20188;-74
2023/02/25 02:02:14;;;;;;;0.87;0.87;;;6.30;95.40;;;;;;5049932;28;20218;-74
2023/02/25 02:04:41;;;;;;;0.63;0.63;;;6.30;95.90;;;;;;5048363;28;20202;-74
2023/02/25 02:07:07;;;;;;;1.53;1.30;;;6.30;95.20;;;;;;5046779;28;20260;-73
2023/02/25 02:09:33;;;;;;;1.97;1.23;;;6.30;94.80;;;;;;5049197;28;20632;-74
2023/02/25 02:12:02;;;;;;;0.93;0.93;;;6.40;94.40;;;;;;5049824;28;20183;-73
2023/02/25 02:14:36;;;;;;;1.50;1.20;;;6.40;94.90;;;;;;5050460;28;20219;-74
2023/02/25 02:17:08;;;;;;;1.27;0.70;;;6.40;94.70;;;;;;5049573;28;20179;-73
2023/02/25 02:19:50;;;;;;;2.30;1.60;;;6.40;94.80;;;;;;5050640;28;20597;-73
2023/02/25 02:22:36;;;;;;;3.60;0.90;;;6.30;94.50;;;;;;5046462;28;20262;-73
2023/02/25 02:25:17;;;;;;;1.30;0.87;;;6.40;94.90;;;;;;5051193;28;20189;-74
2023/02/25 02:28:20;;;;;;;3.30;1.10;;;6.40;95.10;;;;;;5043382;28;20203;-74
2023/02/25 02:30:46;;;;;;;1.17;1.07;;;;;;;;;;5042089;28;20191;-74
2023/02/25 02:33:46;;;;;;;0.90;0.90;;;6.40;94.80;;;;;;5051588;28;20241;-73
2023/02/25 02:36:16;;;;;;;0.90;0.63;;;6.40;94.70;;;;;;5048375;28;20183;-74
2023/02/25 02:38:55;;;;;;;2.77;1.07;;;6.40;94.80;;;;;;5042794;28;20206;-73
2023/02/25 02:41:21;;;;;;;1.07;1.00;;;;;;;;;;5045902;28;20183;-74
2023/02/25 02:43:57;;;;;;;1.33;0.80;;;6.40;94.10;;;;;;5044998;28;20184;-74
2023/02/25 02:46:46;;;;;;;0.63;0.63;;;6.40;94.70;;;;;;5047573;28;20195;-73
2023/02/25 02:49:23;;;;;;;0.70;0.70;;;6.40;94.70;;;;;;5044653;28;20180;-74
2023/02/25 02:52:02;;;;;;;3.07;0.90;;;6.40;94.60;;;;;;5045170;28;20218;-74
2023/02/25 02:54:33;;;;;;;2.37;1.17;;;6.30;94.80;;;;;;5048025;28;20703;-73
2023/02/25 02:57:01;;;;;;;2.70;1.10;;;6.30;94.70;;;;;;5053264;28;20215;-74
2023/02/25 02:59:52;;;;;;;0.97;0.93;;;6.20;94.70;;;;;;5049930;28;20187;-74
2023/02/25 03:02:33;;;;;;;0.80;0.77;;;6.20;94.90;;;;;;5049618;28;20196;-74
2023/02/25 03:05:05;;;;;;;2.30;1.10;;;6.20;95.20;;;;;;5050063;28;20607;-75
2023/02/25 03:07:35;;;;;;;1.93;0.90;;;6.20;95.10;;;;;;5045110;28;20199;-74
2023/02/25 03:10:05;;;;;;;1.93;0.73;;;6.20;95.00;;;;;;5051986;28;20190;-75
2023/02/25 03:12:32;;;;;;;1.17;0.83;;;6.10;95.40;;;;;;5048754;28;20223;-74
2023/02/25 03:14:58;;;;;;;1.00;1.00;;;6.20;95.00;;;;;;5051897;28;20211;-74
2023/02/25 03:17:30;;;;;;;0.97;0.83;;;6.20;95.10;;;;;;5047927;28;20738;-75
2023/02/25 03:20:09;;;;;;;0.87;0.87;;;6.20;94.80;;;;;;5052027;28;20593;-74
2023/02/25 03:22:41;;;;;;;0.93;0.93;;;6.20;95.20;;;;;;5046405;28;20175;-74
2023/02/25 03:25:46;;;;;;;1.27;0.83;;;6.10;95.20;;;;;;5054429;28;20178;-74
2023/02/25 03:28:26;;;;;;;0.80;0.60;;;6.10;94.90;;;;;;5048546;28;20184;-75
2023/02/25 03:31:10;;;;;;;2.03;1.10;;;6.10;95.00;;;;;;5055039;28;20313;-75
2023/02/25 03:33:46;;;;;;;0.73;0.57;;;6.00;95.10;;;;;;5052666;28;20218;-75
2023/02/25 03:36:20;;;;;;;2.10;0.70;;;6.00;95.90;;;;;;5050853;28;20270;-74
2023/02/25 03:38:50;;;;;;;0.97;0.63;;;5.90;95.60;;;;;;5053004;28;20218;-74
2023/02/25 03:41:18;;;;;;;0.77;0.73;;;5.90;95.60;;;;;;5050486;28;20180;-74
2023/02/25 03:43:52;;;;;;;0.93;0.93;;;6.00;95.80;;;;;;5050374;28;20245;-74
2023/02/25 03:46:19;;;;;;;9.03;1.07;;;5.90;95.40;;;;;;5051192;28;20179;-74
2023/02/25 03:48:46;;;;;;;2.67;1.00;;;5.90;95.50;;;;;;5049733;28;20691;-74
2023/02/25 03:51:15;;;;;;;0.60;0.60;;;5.90;95.70;;;;;;5048923;28;20210;-74
2023/02/25 03:53:41;;;;;;;1.60;0.97;;;;;;;;;;5046941;28;20224;-73
2023/02/25 03:56:09;;;;;;;4.03;1.23;;;5.80;95.50;;;;;;5051984;28;20176;-74
2023/02/25 03:58:37;;;;;;;1.23;1.17;;;5.80;95.30;;;;;;5053035;28;20856;-74
2023/02/25 04:01:13;;;;;;;1.00;0.90;;;5.80;95.60;;;;;;5046466;28;20182;-73
2023/02/25 04:03:39;;;;;;;0.87;0.50;;;;;;;;;;5053660;28;20183;-74
2023/02/25 04:06:05;;;;;;;1.33;0.57;;;5.70;96.20;;;;;;5058936;28;20215;-73
2023/02/25 04:08:31;;;;;;;1.17;1.13;;;;;;;;;;5050976;28;20229;-74
2023/02/25 04:10:57;;;;;;;0.73;0.53;;;;;;;;;;5046192;28;20175;-73
2023/02/25 04:13:23;;;;;;;2.97;0.73;;;;;;;;;;5052702;28;20308;-73
2023/02/25 04:15:49;;;;;;;0.60;0.60;;;5.60;96.10;;;;;;5051483;28;20214;-74
2023/02/25 04:18:16;;;;;;;3.10;1.33;;;5.60;96.30;;;;;;5048174;28;20631;-74
2023/02/25 04:20:41;;;;;;;2.47;1.33;;;5.60;97.00;;;;;;5046512;28;20614;-74
2023/02/25 04:23:11;;;;;;;3.47;1.10;;;5.60;96.50;;;;;;5049275;28;20321;-74
2023/02/25 04:25:37;;;;;;;1.67;1.13;;;;;;;;;;5053732;28;20617;-74
2023/02/25 04:28:03;;;;;;;1.23;0.63;;;;;;;;;;5050816;28;20188;-74
2023/02/25 04:30:29;;;;;;;1.60;0.87;;;;;;;;;;5052979;28;20241;-75
2023/02/25 04:32:55;;;;;;;2.03;0.73;;;;;;;;;;5050316;28;20175;-74
2023/02/25 04:35:21;;;;;;;0.50;0.50;;;;;;;;;;5050748;28;20184;-75
2023/02/25 04:37:47;;;;;;;0.83;0.40;;;;;;;;;;5046975;28;20240;-75
2023/02/25 04:40:18;;;;;;;1.17;0.83;;;5.50;96.50;;;;;;5053551;28;20210;-73
2023/02/25 04:42:44;;;;;;;0.80;0.80;;;5.40;97.00;;;;;;5050042;28;20186;-76
2023/02/25 04:45:11;;;;;;;5.00;1.33;;;5.40;96.10;;;;;;5048525;28;20266;-74
2023/02/25 04:47:37;;;;;;;0.40;0.40;;;5.30;96.40;;;;;;5044437;28;20180;-75
2023/02/25 04:50:04;;;;;;;1.00;1.00;;;5.30;96.50;;;;;;5048754;28;20273;-73
2023/02/25 04:52:30;;;;;;;0.63;0.63;;;;;;;;;;5048088;28;20180;-75
2023/02/25 04:54:56;;;;;;;1.60;1.10;;;;;;;;;;5049565;28;20221;-75
2023/02/25 04:57:22;;;;;;;0.67;0.67;;;;;;;;;;5046856;28;20234;-74
2023/02/25 04:59:48;;;;;;;1.33;0.77;;;;;;;;;;5046887;28;20218;-75
2023/02/25 05:02:14;;;;;;;2.93;0.70;;;;;;;;;;5048150;28;20728;-74
2023/02/25 05:04:40;;;;;;;2.07;0.97;;;;;;;;;;5043587;28;20233;-75
2023/02/25 05:07:07;;;;;;;1.20;1.10;;;5.40;96.90;;;;;;5054431;28;20220;-75
2023/02/25 05:09:33;;;;;;;3.07;1.00;;;5.40;97.00;;;;;;5051484;28;20205;-73
2023/02/25 05:11:59;;;;;;;1.60;1.00;;;;;;;;;;5050466;28;20180;-73
2023/02/25 05:14:25;;;;;;;0.70;0.70;;;;;;;;;;5049394;28;20313;-74
2023/02/25 05:16:51;;;;;;;1.53;1.03;;;;;;;;;;5051644;28;20206;-75
2023/02/25 05:19:20;;;;;;;0.53;0.53;;;5.50;96.50;;;;;;5050702;28;20184;-75
2023/02/25 05:21:46;;;;;;;1.77;1.17;;;;;;;;;;5049463;28;20183;-75
2023/02/25 05:24:12;;;;;;;0.73;0.73;;;5.50;96.90;;;;;;5048215;28;20189;-74
2023/02/25 05:26:38;;;;;;;0.73;0.73;;;5.50;97.00;;;;;;5050213;28;20786;-75
2023/02/25 05:29:05;;;;;;;1.87;1.30;;;5.50;96.50;;;;;;5041908;28;20181;-74
2023/02/25 05:31:31;;;;;;;0.60;0.53;;;;;;;;;;5050079;28;20183;-74
2023/02/25 05:33:56;;;;;;;1.17;0.93;;;5.50;96.80;;;;;;5047502;28;20234;-74
2023/02/25 05:36:23;;;;;;;1.97;1.17;;;;;;;;;;5051811;28;20195;-74
2023/02/25 05:38:51;;;;;;;1.43;0.90;;;5.60;96.50;;;;;;5048855;28;20881;-74
2023/02/25 05:41:17;;;;;;;0.60;0.60;;;;;;;;;;5047330;28;20182;-75
2023/02/25 05:43:44;;;;;;;1.03;0.90;;;;;;;;;;5050178;28;20187;-74
2023/02/25 05:46:12;;;;;;;0.93;0.87;;;5.80;96.30;;;;;;5047286;28;20195;-74
2023/02/25 05:48:41;;;;;;;1.20;1.10;;;5.90;95.50;;;;;;5047003;28;20278;-74
2023/02/25 05:51:15;;;;;;;9.20;1.20;;;5.90;96.20;;;;;;5049023;28;20187;-74
2023/02/25 05:53:43;;;;;;;1.80;1.03;;;5.90;96.30;;;;;;5049690;28;20218;-75
2023/02/25 05:56:12;;;;;;;2.27;1.30;;;5.90;96.60;;;;;;5048197;28;20210;-75
2023/02/25 05:58:38;;;;;;;3.00;1.47;;;;;;;;;;5050051;28;20194;-75
2023/02/25 06:01:12;;;;;;;1.27;1.17;;;6.10;96.80;;;;;;5043876;28;20179;-74
2023/02/25 06:03:39;;;;;;;1.27;1.20;;;6.20;95.80;;;;;;5053380;28;20166;-75
2023/02/25 06:06:06;;;;;;;1.93;1.30;;;6.30;95.00;;;;;;5051889;28;20245;-75
2023/02/25 06:08:32;;;;;;;1.57;0.90;;;6.30;95.60;;;;;;5050693;28;20241;-75
2023/02/25 06:10:59;;;;;;;1.80;1.20;;;6.40;95.40;;;;;;5048099;28;20175;-74
2023/02/25 06:13:25;;;;;;;1.50;1.20;;;6.50;94.40;;;;;;5044911;28;20223;-75
2023/02/25 06:15:51;;;;;;;2.13;1.73;;;6.50;94.40;;;;;;5045490;28;20194;-74
2023/02/25 06:18:17;;;;;;;9.20;2.47;;;6.40;95.00;;;;;;5047411;28;20175;-73
2023/02/25 06:20:42;;;;;;;1.70;1.60;;;6.50;95.10;;;;;;5047992;28;20201;-73
2023/02/25 06:23:08;;;;;;;2.67;2.13;;;6.50;94.40;;;;;;5045749;28;20187;-73
2023/02/25 06:25:34;;;;;;;2.33;2.00;;;6.60;94.70;;;;;;5053411;28;20187;-73
2023/02/25 06:28:01;;;;;;;3.30;2.07;;;6.70;94.30;;;;;;5057244;28;20244;-74
2023/02/25 06:30:28;;;;;;;3.47;2.43;;;6.60;94.60;;;;;;5048863;28;20193;-75
2023/02/25 06:32:54;;;;;;;3.33;2.83;;;6.60;94.70;;;;;;5043400;28;20175;-72
2023/02/25 06:35:22;;;;;;;3.80;2.23;;;6.60;94.70;;;;;;5042865;28;20179;-73
2023/02/25 06:37:49;;;;;;;4.27;3.00;;;6.70;94.70;;;;;;5045874;28;20187;-74
2023/02/25 06:40:15;;;;;;;5.30;2.57;;;6.70;94.80;;;;;;5047320;28;20225;-73
2023/02/25 06:42:41;;;;;;;2.83;2.50;;;6.80;94.80;;;;;;5055005;28;20194;-75
2023/02/25 06:45:08;;;;;;;7.90;3.00;;;7.00;94.20;;;;;;5049093;28;20179;-74
2023/02/25 06:47:34;;;;;;;5.53;2.77;;;7.10;93.60;;;;;;5048621;28;20217;-73
2023/02/25 06:50:00;;;;;;;5.00;3.40;;;7.10;93.90;;;;;;5053447;28;20195;-72
2023/02/25 06:52:25;;;;;;;5.37;2.60;;;7.30;93.40;;;;;;5050155;28;20258;-74
2023/02/25 06:54:51;;;;;;;5.57;3.07;;;7.40;93.60;;;;;;5051993;28;20222;-75
2023/02/25 06:57:18;;;;;;;7.20;2.97;;;7.50;92.70;;;;;;5048615;28;20183;-74
2023/02/25 06:59:44;;;;;;;5.53;1.90;;;7.50;91.90;;;;;;5044614;28;20223;-73
2023/02/25 07:02:13;;;;;;;6.40;3.43;;;7.60;91.60;;;;;;5045378;28;20884;-74
2023/02/25 07:04:39;;;;;;;5.30;2.47;;;7.70;91.50;;;;;;5057374;28;20735;-74
2023/02/25 07:07:05;;;;;;;3.73;2.73;;;7.80;91.50;;;;;;5048019;28;21822;-74
2023/02/25 07:09:30;;;;;;;9.67;2.73;;;7.90;91.40;;;;;;5050942;28;20179;-74
2023/02/25 07:11:56;;;;;;;4.13;2.67;;;8.00;91.10;;;;;;5054909;28;20217;-74
2023/02/25 07:14:22;;;;;;;7.80;2.93;;;8.10;91.20;;;;;;5051510;28;20226;-73
2023/02/25 07:16:48;;;;;;;5.93;2.67;;;8.20;90.80;;;;;;5052966;28;20188;-74
2023/02/25 07:19:15;;;;;;;5.30;2.90;;;8.30;90.90;;;;;;5053019;28;20187;-73
2023/02/25 07:21:42;;;;;;;4.87;2.90;;;8.40;90.70;;;;;;5053364;28;20198;-73
2023/02/25 07:24:09;;;;;;;3.60;2.33;;;8.60;90.00;;;;;;5048833;28;20194;-73
2023/02/25 07:26:37;;;;;;;3.47;2.50;;;8.70;89.10;;;;;;5050132;28;20186;-74
2023/02/25 07:29:04;;;;;;;2.87;2.57;;;8.80;89.60;;;;;;5052384;28;20795;-74
2023/02/25 07:31:29;;;;;;;3.70;2.97;;;8.90;88.70;;;;;;5046933;28;20275;-73
2023/02/25 07:33:56;;;;;;;14.97;3.80;;;9.10;88.60;;;;;;5052611;28;20388;-73
2023/02/25 07:36:22;;;;;;;5.87;2.97;;;9.20;88.50;;;;;;5053421;28;20199;-75
2023/02/25 07:38:48;;;;;;;7.13;2.67;;;9.30;88.30;;;;;;5048268;28;20167;-75
2023/02/25 07:41:15;;;;;;;3.87;2.73;;;9.50;88.30;;;;;;5051684;28;20209;-76
2023/02/25 07:43:42;;;;;;;9.87;3.03;;;9.60;87.70;;;;;;5048735;28;20268;-76
2023/02/25 07:46:08;;;;;;;6.77;2.40;;;9.70;87.00;;;;;;5049297;28;20183;-73
2023/02/25 07:48:34;;;;;;;4.97;2.57;;;9.90;86.60;;;;;;5053277;28;20184;-73
2023/02/25 07:51:08;;;;;;;6.33;3.30;;;10.00;85.90;;;;;;5055723;28;20656;-74
2023/02/25 07:53:34;;;;;;;4.13;2.83;;;10.10;84.40;;;;;;5048864;28;20222;-73
2023/02/25 07:55:59;;;;;;;4.73;3.03;;;10.20;84.20;;;;;;5052387;28;20263;-73
2023/02/25 07:58:27;;;;;;;4.20;2.97;;;10.40;84.00;;;;;;5049869;28;20179;-73
2023/02/25 08:00:53;;;;;;;5.60;3.03;;;10.60;84.90;;;;;;5051251;28;20179;-74
2023/02/25 08:03:20;;;;;;;6.37;2.80;;;11.00;84.10;;;;;;5051806;28;20607;-73
2023/02/25 08:05:50;;;;;;;3.55;3.05;;;11.40;81.90;;;;;;5080943;28;20179;-75
2023/02/25 08:08:16;;;;;;;4.97;3.22;;;11.70;81.20;;;;;;5043999;28;20200;-74
2023/02/25 08:10:42;;;;;;;4.57;2.38;;;12.00;80.20;;;;;;5046422;28;20202;-74
2023/02/25 08:13:08;;;;;;;5.45;2.85;;;12.20;79.50;;;;;;5047739;28;20729;-73
2023/02/25 08:15:33;;;;;;;4.82;3.00;;;12.40;78.60;;;;;;5048923;28;20266;-74
2023/02/25 08:17:59;;;;;;;6.13;2.95;;;12.60;78.20;;;;;;5051436;28;20241;-74
2023/02/25 08:20:25;;;;;;;8.80;3.67;;;12.80;77.10;;;;;;5042618;28;20184;-74
2023/02/25 08:22:50;;;;;;;7.03;3.85;;;13.00;76.90;;;;;;5041654;28;20188;-75
2023/02/25 08:25:16;;;;;;;7.57;3.38;;;13.20;76.10;;;;;;5046305;28;20187;-76
2023/02/25 08:27:42;;;;;;;12.43;3.97;;;13.40;76.10;;;;;;5051098;28;20184;-76
2023/02/25 08:30:09;;;;;;;4.88;3.35;;;13.60;75.50;;;;;;5040478;28;20187;-74
2023/02/25 08:32:36;;;;;;;7.13;4.28;;;14.00;74.80;;;;;;5034447;28;20207;-75
2023/02/25 08:35:03;;;;;;;5.53;3.22;;;14.20;74.60;;;;;;5032389;28;20231;-72
2023/02/25 08:37:28;;;;;;;5.30;3.20;;;14.40;73.80;;;;;;5034349;28;20935;-75
2023/02/25 08:39:56;;;;;;;8.35;3.40;;;14.60;73.00;;;;;;5030523;28;20205;-75
2023/02/25 08:42:22;;;;;;;6.10;3.78;;;14.70;72.10;;;;;;5033041;28;20805;-76
2023/02/25 08:44:49;;;;;;;7.93;3.47;;;14.70;71.10;;;;;;5029816;28;20199;-75
2023/02/25 08:47:15;;;;;;;11.60;3.63;;;14.80;70.80;;;;;;5030984;28;20207;-74
2023/02/25 08:49:41;;;;;;;5.93;4.13;;;14.80;70.30;;;;;;5032841;28;20206;-75
2023/02/25 08:52:10;;;;;;;5.35;3.42;;;14.80;70.20;;;;;;5036787;28;20207;-75
2023/02/25 08:54:37;;;;;;;8.63;4.95;;;14.80;70.80;;;;;;5044424;28;20242;-74
2023/02/25 08:57:03;;;;;;;7.47;4.25;;;14.70;71.20;;;;;;5038633;28;20728;-74
2023/02/25 08:59:34;;;;;;;10.50;4.30;;;14.70;70.40;;;;;;5037068;28;20183;-74
2023/02/25 09:02:02;;;;;;;9.63;5.50;;;14.50;71.40;;;;;;5049388;28;20287;-75
2023/02/25 09:04:27;;;;;;;10.35;4.78;;;14.40;70.80;;;;;;5049565;28;20187;-74
2023/02/25 09:06:53;;;;;;;11.75;4.95;;;14.30;70.90;;;;;;5045315;28;20213;-74
2023/02/25 09:09:20;;;;;;;7.65;4.35;;;14.20;71.40;;;;;;5045464;28;20977;-74
2023/02/25 09:11:47;;;;;;;10.68;4.55;;;14.20;71.50;;;;;;5050343;28;20258;-74
2023/02/25 09:14:13;;;;;;;8.68;4.43;;;14.20;72.00;;;;;;5045439;28;20219;-75
2023/02/25 09:16:39;;;;;;;9.23;4.80;;;14.10;72.10;;;;;;5045415;28;20198;-75
2023/02/25 09:19:05;;;;;;;11.38;5.00;;;14.00;72.20;;;;;;5046827;28;20198;-74
2023/02/25 09:21:31;;;;;;;13.45;5.80;;;13.90;73.10;;;;;;5042512;28;20179;-75
2023/02/25 09:23:58;;;;;;;8.88;4.80;;;13.60;73.10;;;;;;5048968;28;20210;-75
2023/02/25 09:26:24;;;;;;;6.15;4.40;;;13.50;73.70;;;;;;5040006;28;20180;-75
2023/02/25 09:28:49;;;;;;;8.32;5.38;;;13.30;74.00;;;;;;5041911;28;20249;-75
2023/02/25 09:31:17;;;;;;;13.32;5.07;;;13.20;74.50;;;;;;5047494;28;20640;-77
2023/02/25 09:33:43;;;;;;;8.80;4.43;;;13.10;74.90;;;;;;5043488;28;20219;-76
2023/02/25 09:36:15;;;;;;;8.90;4.28;;;13.10;74.90;;;;;;5049347;28;20189;-76
2023/02/25 09:38:42;;;;;;;10.82;4.38;;;13.00;74.90;;;;;;5042761;28;20198;-76
2023/02/25 09:41:27;;;;;;;7.68;4.55;;;12.90;75.20;;;;;;5048600;28;20281;-76
2023/02/25 09:44:21;;;;;;;6.10;3.80;;;12.80;75.30;;;;;;5042709;28;20187;-76
2023/02/25 09:46:54;;;;;;;14.65;4.40;;;12.70;75.30;;;;;;5047495;28;20653;-75
2023/02/25 09:49:24;;;;;;;8.13;4.50;;;12.60;75.60;;;;;;5036804;28;20191;-75
2023/02/25 09:51:55;;;;;;;13.18;4.25;;;12.50;75.90;;;;;;5047844;28;20175;-77
2023/02/25 09:54:25;;;;;;;8.32;4.07;;;12.50;75.80;;;;;;5045845;28;20930;-77
2023/02/25 09:56:53;;;;;;;9.57;4.50;;;12.50;76.00;;;;;;5045082;28;20176;-77
2023/02/25 09:59:20;;;;;;;8.00;4.72;;;12.50;75.50;;;;;;5040835;28;20213;-77
2023/02/25 10:02:26;;;;;;;14.38;4.80;;;12.40;75.50;;;;;;5047004;28;20178;-77
2023/02/25 10:05:17;;;;;;;13.73;3.97;;;12.30;75.70;;;;;;4984009;28;20189;-77
2023/02/25 10:08:10;;;;;;;9.70;4.55;;;12.30;75.80;;;;;;4990993;28;20201;-77
2023/02/25 10:11:03;;;;;;;13.50;4.25;;;12.30;75.80;;;;;;4994176;28;20749;-78
2023/02/25 10:13:53;;;;;;;7.68;3.53;;;12.40;75.50;;;;;;4998777;28;20228;-76
2023/02/25 10:16:40;;;;;;;9.68;3.95;;;12.50;75.00;;;;;;4998509;28;20733;-76
2023/02/25 10:19:41;;;;;;;10.20;4.43;;;12.50;75.30;;;;;;4996884;28;20629;-75
2023/02/25 10:22:33;;;;;;;11.02;4.22;;;12.50;75.40;;;;;;4997807;28;20198;-75
2023/02/25 10:25:13;;;;;;;10.05;5.07;;;12.50;75.20;;;;;;4999047;28;20185;-75
2023/02/25 10:28:11;;;;;;;13.60;4.68;;;12.60;74.70;;;;;;4997637;28;20192;-75
2023/02/25 10:31:03;;;;;;;10.55;4.90;;;12.60;74.50;;;;;;4921579;29;20203;-75
2023/02/25 10:33:35;;;;;;;19.67;4.55;;;12.60;74.80;;;;;;4883914;29;20232;-75
2023/02/25 10:36:04;;;;;;;11.85;4.57;;;12.60;74.70;;;;;;4883265;29;20193;-76
2023/02/25 10:38:29;;;;;;;9.73;3.95;;;12.70;74.10;;;;;;4883135;29;20304;-76
2023/02/25 10:40:57;;;;;;;10.43;4.22;;;12.80;74.00;;;;;;4885593;29;20679;-75
2023/02/25 10:43:25;;;;;;;7.70;3.80;;;12.90;74.30;;;;;;4920829;29;20748;-75
2023/02/25 10:46:14;;;;;;;6.50;2.55;;;13.00;73.60;;;;;;4921544;29;20307;-75
2023/02/25 10:48:43;;;;;;;5.57;1.98;;;13.00;73.50;;;;;;4922024;29;20359;-75
2023/02/25 10:51:12;;;;;;;8.23;4.47;;;13.00;73.50;;;;;;4920136;29;20251;-76
2023/02/25 10:53:39;;;;;;;5.25;3.50;;;13.00;72.70;;;;;;4920831;29;20236;-76
2023/02/25 10:56:06;;;;;;;10.30;4.20;;;13.00;72.10;;;;;;4922407;29;20199;-76
2023/02/25 10:58:43;;;;;;;5.22;3.85;;;13.00;72.40;;;;;;4922676;29;20717;-75
2023/02/25 11:01:15;;;;;;;7.78;3.58;;;13.10;72.10;;;;;;4921860;29;20199;-75
2023/02/25 11:03:57;;;;;;;4.93;3.58;;;13.20;71.80;;;;;;4921598;29;20951;-75
2023/02/25 11:06:37;;;;;;;5.85;2.70;;;13.20;71.70;;;;;;4926364;28;20198;-75
2023/02/25 11:09:20;;;;;;;6.00;2.13;;;13.30;71.40;;;;;;4967693;28;20593;-75
2023/02/25 11:11:57;;;;;;;6.57;2.90;;;13.30;69.90;;;;;;5041667;28;20270;-75
2023/02/25 11:14:27;;;;;;;6.45;2.80;;;13.40;70.30;;;;;;5041365;28;20223;-75
2023/02/25 11:17:14;;;;;;;5.97;3.13;;;13.50;70.50;;;;;;5048757;28;20558;-78
2023/02/25 11:19:51;;;;;;;4.47;2.33;;;13.50;70.10;;;;;;5047601;28;20670;-75
2023/02/25 11:22:17;;;;;;;5.55;3.03;;;13.60;70.00;;;;;;5048237;28;20189;-75
2023/02/25 11:24:45;;;;;;;7.00;2.80;;;13.60;70.40;;;;;;5052607;28;20564;-75
2023/02/25 11:27:33;;;;;;;6.85;2.90;;;13.80;68.70;;;;;;5049162;28;20188;-75
2023/02/25 11:30:10;;;;;;;6.35;2.53;;;13.90;69.00;;;;;;5046218;28;20232;-75
2023/02/25 11:32:43;;;;;;;11.35;2.60;;;13.90;67.60;;;;;;5050388;28;20215;-75
2023/02/25 11:35:17;;;;;;;5.30;2.72;;;13.90;67.80;;;;;;5049798;28;20275;-75
2023/02/25 11:37:47;;;;;;;4.90;2.05;;;13.90;68.90;;;;;;5050393;28;20211;-75
2023/02/25 11:40:26;;;;;;;9.35;2.33;;;14.00;67.50;;;;;;5051542;28;20205;-75
2023/02/25 11:43:15;;;;;;;6.38;2.33;;;14.10;67.00;;;;;;5048967;28;20668;-75
2023/02/25 11:46:16;;;;;;;21.00;2.40;;;14.20;66.70;;;;;;5056738;28;20190;-73
2023/02/25 11:48:58;;;;;;;4.40;2.55;;;14.30;66.90;;;;;;5050722;28;20175;-74
2023/02/25 11:51:33;;;;;;;5.38;1.77;;;14.40;66.20;;;;;;5047218;28;20187;-75
2023/02/25 11:54:08;;;;;;;9.88;2.05;;;14.40;66.30;;;;;;5056818;28;20284;-75
2023/02/25 11:56:38;;;;;;;6.95;1.80;;;14.50;65.90;;;;;;5049780;28;20179;-75
2023/02/25 11:59:37;;;;;;;8.63;1.73;;;14.60;65.40;;;;;;5049867;28;20179;-75
2023/02/25 12:02:03;;;;;;;6.53;1.35;;;14.80;63.00;;;;;;5053656;28;20266;-75
2023/02/25 12:04:59;;;;;;;3.33;1.15;;;14.90;63.50;;;;;;5049743;28;20274;-74
2023/02/25 12:07:42;;;;;;;3.00;1.15;;;15.10;62.50;;;;;;5047122;28;20196;-74
2023/02/25 12:10:39;;;;;;;6.55;1.65;;;15.20;63.30;;;;;;5049357;28;20321;-74
2023/02/25 12:13:05;;;;;;;3.08;1.40;;;15.40;62.40;;;;;;5049699;28;20294;-74
2023/02/25 12:15:42;;;;;;;1.15;0.98;;;15.50;61.70;;;;;;5051193;28;21257;-73
2023/02/25 12:18:30;;;;;;;2.95;1.48;;;15.60;60.80;;;;;;5042976;28;20969;-73
2023/02/25 12:20:58;;;;;;;4.28;1.48;;;15.70;60.50;;;;;;5042984;28;20210;-73
2023/02/25 12:23:42;;;;;;;4.93;1.55;;;15.80;60.60;;;;;;5039442;28;20175;-72
2023/02/25 12:26:22;;;;;;;2.97;1.25;;;15.90;60.50;;;;;;5045010;28;20194;-73
2023/02/25 12:28:54;;;;;;;3.90;1.10;;;15.90;60.40;;;;;;5047406;28;20628;-73
2023/02/25 12:31:42;;;;;;;1.52;0.80;;;15.90;59.70;;;;;;5045162;28;20199;-73
2023/02/25 12:34:24;;;;;;;8.40;1.35;;;15.90;59.60;;;;;;5039664;28;20215;-73
2023/02/25 12:37:11;;;;;;;4.90;1.38;;;15.90;59.80;;;;;;5044021;28;20187;-73
2023/02/25 12:39:58;;;;;;;3.90;1.23;;;15.90;59.20;;;;;;5046958;28;20226;-73
2023/02/25 12:43:00;;;;;;;3.70;1.33;;;15.90;59.50;;;;;;5044367;28;20245;-74
2023/02/25 12:45:55;;;;;;;3.63;1.30;;;15.90;59.60;;;;;;5045661;28;20180;-74
2023/02/25 12:48:23;;;;;;;8.40;1.63;;;16.00;59.00;;;;;;5047502;28;20180;-74
2023/02/25 12:51:15;;;;;;;1.80;1.45;;;16.00;59.10;;;;;;5044915;28;20214;-73
2023/02/25 12:53:54;;;;;;;4.03;1.10;;;16.10;58.90;;;;;;5046159;28;20211;-73
2023/02/25 12:56:35;;;;;;;6.20;1.70;;;16.10;58.80;;;;;;5047512;28;20196;-73
2023/02/25 12:59:22;;;;;;;5.60;1.38;;;16.10;59.00;;;;;;5050770;28;20290;-73
2023/02/25 13:02:11;;;;;;;8.50;1.40;;;16.20;58.80;;;;;;5049186;28;20188;-73
2023/02/25 13:04:42;;;;;;;1.27;1.17;;;16.30;58.80;;;;;;5045883;28;20261;-74
2023/02/25 13:07:55;;;;;;;7.53;1.30;;;16.40;58.80;;;;;;5047985;28;21434;-73
2023/02/25 13:10:46;;;;;;;5.63;1.30;;;16.60;58.50;;;;;;5026645;28;20200;-73
2023/02/25 13:13:45;;;;;;;4.32;1.02;;;16.70;57.30;;;;;;4941285;28;20214;-73
2023/02/25 13:16:34;;;;;;;4.55;1.40;;;16.80;57.60;;;;;;4940378;28;20232;-74
2023/02/25 13:19:28;;;;;;;3.00;1.10;;;16.90;57.40;;;;;;4943721;28;20179;-76
2023/02/25 13:22:20;;;;;;;3.10;1.05;;;17.00;57.50;;;;;;4940322;28;20202;-74
2023/02/25 13:25:18;;;;;;;12.15;1.73;;;17.00;57.30;;;;;;4937963;28;20207;-73
2023/02/25 13:28:20;;;;;;;1.13;0.90;;;16.80;57.10;;;;;;4940932;28;20206;-74